Time;durP1;ratioP1;P1;durP2;ratioP2;P2;SDS_P1;SDS_P2;PMS_P1;PMS_P2;Temp;Humidity;BMP_temperature;BMP_pressure;BME280_temperature;BME280_humidity;BME280_pressure;Samples;Min_cycle;Max_cycle;Signal;HPM_P1;HPM_P2
2023/06/19 00:01:10;;;;;;;6.85;5.97;;;22.30;58.80;;;;;;5115667;28;20235;-78
2023/06/19 00:03:38;;;;;;;6.35;5.65;;;22.30;58.80;;;;;;5115542;28;20204;-78
2023/06/19 00:06:07;;;;;;;6.80;5.63;;;22.30;58.80;;;;;;5115410;28;20267;-78
2023/06/19 00:08:36;;;;;;;6.43;5.60;;;22.30;58.80;;;;;;5115502;28;20225;-78
2023/06/19 00:11:03;;;;;;;6.65;5.40;;;22.30;58.80;;;;;;5115589;28;20769;-78
2023/06/19 00:13:30;;;;;;;6.32;5.43;;;22.30;58.80;;;;;;5115390;28;20194;-78
2023/06/19 00:16:00;;;;;;;5.88;5.28;;;22.30;58.70;;;;;;5115591;28;20688;-78
2023/06/19 00:18:27;;;;;;;7.22;5.63;;;22.30;58.70;;;;;;5097612;28;20196;-78
2023/06/19 00:20:55;;;;;;;6.10;5.28;;;22.30;58.70;;;;;;5115500;28;20296;-78
2023/06/19 00:23:24;;;;;;;7.65;6.00;;;22.20;58.70;;;;;;5114912;28;20225;-78
2023/06/19 00:25:51;;;;;;;7.68;5.60;;;22.20;58.70;;;;;;5114781;28;20324;-78
2023/06/19 00:28:21;;;;;;;7.57;5.93;;;22.30;58.70;;;;;;5115159;28;20276;-78
2023/06/19 00:30:48;;;;;;;5.63;5.03;;;22.20;58.60;;;;;;5115316;28;20302;-78
2023/06/19 00:33:16;;;;;;;6.28;5.30;;;22.20;58.60;;;;;;5114740;28;20232;-78
2023/06/19 00:35:43;;;;;;;5.15;4.57;;;22.20;58.60;;;;;;5114933;28;20240;-78
2023/06/19 00:38:11;;;;;;;5.78;5.03;;;22.20;58.70;;;;;;5097142;28;20564;-78
2023/06/19 00:40:40;;;;;;;7.75;5.03;;;22.20;58.70;;;;;;5114733;28;20213;-78
2023/06/19 00:43:07;;;;;;;5.70;4.97;;;22.30;58.70;;;;;;5114586;28;20193;-78
2023/06/19 00:45:35;;;;;;;4.78;4.30;;;22.20;58.60;;;;;;5110623;28;20305;-78
2023/06/19 00:48:02;;;;;;;5.32;4.70;;;22.20;58.60;;;;;;5114785;28;20232;-78
2023/06/19 00:50:31;;;;;;;4.93;4.20;;;22.20;58.60;;;;;;5114709;28;20299;-79
2023/06/19 00:52:59;;;;;;;4.60;4.10;;;22.20;58.60;;;;;;5096626;28;20196;-78
2023/06/19 00:55:29;;;;;;;5.40;4.90;;;22.20;58.50;;;;;;5110675;28;20217;-78
2023/06/19 00:57:57;;;;;;;5.18;4.68;;;22.20;58.60;;;;;;5114251;28;20269;-78
2023/06/19 01:00:25;;;;;;;5.05;4.40;;;22.20;58.50;;;;;;5114599;28;20300;-78
2023/06/19 01:02:52;;;;;;;4.78;4.28;;;22.20;58.50;;;;;;5110016;28;20225;-78
2023/06/19 01:05:20;;;;;;;4.68;4.28;;;22.20;58.50;;;;;;5114111;28;20229;-78
2023/06/19 01:07:53;;;;;;;5.63;4.07;;;22.20;58.50;;;;;;5096334;28;20193;-78
2023/06/19 01:10:24;;;;;;;4.75;4.03;;;22.20;58.50;;;;;;5114456;28;20620;-78
2023/06/19 01:13:01;;;;;;;5.13;4.63;;;22.20;58.50;;;;;;5113844;28;20636;-78
2023/06/19 01:15:29;;;;;;;4.07;3.67;;;22.20;58.60;;;;;;5113582;28;20219;-78
2023/06/19 01:17:58;;;;;;;4.65;4.18;;;22.20;58.50;;;;;;5079089;28;20726;-78
2023/06/19 01:20:26;;;;;;;4.10;3.70;;;22.20;58.50;;;;;;5113694;28;20238;-78
2023/06/19 01:22:56;;;;;;;4.30;3.90;;;22.20;58.50;;;;;;5113883;28;20313;-78
2023/06/19 01:25:24;;;;;;;4.10;3.70;;;22.20;58.50;;;;;;5113278;28;20237;-78
2023/06/19 01:27:52;;;;;;;5.72;4.22;;;22.20;58.50;;;;;;5096042;28;20292;-78
2023/06/19 01:30:20;;;;;;;4.88;4.13;;;22.20;58.50;;;;;;5113461;28;20300;-78
2023/06/19 01:32:54;;;;;;;4.40;4.00;;;22.20;58.50;;;;;;5113910;28;20224;-78
2023/06/19 01:35:29;;;;;;;3.92;3.58;;;22.20;58.50;;;;;;5113341;28;20268;-78
2023/06/19 01:37:59;;;;;;;4.75;3.65;;;22.20;58.50;;;;;;5113424;28;20745;-78
2023/06/19 01:40:31;;;;;;;4.80;4.30;;;22.20;58.50;;;;;;5113466;28;20217;-78
2023/06/19 01:43:00;;;;;;;4.82;3.50;;;22.20;58.50;;;;;;5113233;28;20190;-78
2023/06/19 01:45:29;;;;;;;5.50;3.97;;;22.10;58.40;;;;;;5113287;28;20238;-78
2023/06/19 01:47:56;;;;;;;5.70;4.03;;;22.20;58.50;;;;;;5095588;28;20182;-78
2023/06/19 01:50:25;;;;;;;4.00;3.60;;;22.10;59.00;;;;;;5113629;28;20213;-78
2023/06/19 01:52:53;;;;;;;7.22;3.58;;;22.10;58.40;;;;;;5095481;28;20284;-78
2023/06/19 01:55:22;;;;;;;3.95;3.55;;;22.10;58.40;;;;;;5113282;28;20267;-78
2023/06/19 01:57:49;;;;;;;5.18;3.70;;;22.10;58.50;;;;;;5113324;28;20217;-78
2023/06/19 02:00:17;;;;;;;4.40;3.85;;;22.10;58.70;;;;;;5094924;28;20217;-78
2023/06/19 02:02:44;;;;;;;3.95;3.58;;;22.10;58.40;;;;;;5112850;28;20566;-78
2023/06/19 02:05:12;;;;;;;3.60;3.30;;;22.10;58.40;;;;;;5112773;28;20779;-78
2023/06/19 02:07:38;;;;;;;4.15;3.72;;;22.10;58.40;;;;;;5113247;28;20281;-78
2023/06/19 02:10:07;;;;;;;4.90;3.67;;;22.10;58.40;;;;;;5112630;28;20781;-77
2023/06/19 02:12:36;;;;;;;4.47;4.00;;;22.10;58.40;;;;;;5113155;28;20192;-78
2023/06/19 02:15:04;;;;;;;4.82;3.70;;;22.10;58.30;;;;;;5112881;28;20646;-78
2023/06/19 02:17:31;;;;;;;6.75;3.70;;;22.10;58.40;;;;;;5113014;28;20272;-78
2023/06/19 02:19:58;;;;;;;4.03;3.40;;;22.10;58.30;;;;;;5113141;28;20493;-78
2023/06/19 02:22:26;;;;;;;4.47;3.90;;;22.10;58.40;;;;;;5094933;28;20269;-78
2023/06/19 02:24:53;;;;;;;4.18;3.50;;;22.10;58.40;;;;;;5094987;28;20319;-78
2023/06/19 02:27:20;;;;;;;4.18;3.50;;;22.10;58.40;;;;;;5112561;28;20197;-78
2023/06/19 02:29:49;;;;;;;4.15;3.40;;;22.10;58.30;;;;;;5112976;28;20249;-78
2023/06/19 02:32:16;;;;;;;3.97;3.53;;;22.10;58.40;;;;;;5112942;28;20186;-78
2023/06/19 02:34:43;;;;;;;3.95;3.65;;;22.10;59.00;;;;;;5112836;28;20300;-78
2023/06/19 02:37:10;;;;;;;3.70;3.25;;;22.10;58.30;;;;;;5108533;28;20268;-78
2023/06/19 02:39:37;;;;;;;4.38;3.70;;;22.10;58.30;;;;;;5077783;28;20700;-78
2023/06/19 02:42:06;;;;;;;5.10;3.90;;;22.00;58.30;;;;;;5112846;28;20596;-78
2023/06/19 02:44:33;;;;;;;4.07;3.63;;;22.00;58.20;;;;;;5060536;28;20707;-78
2023/06/19 02:47:02;;;;;;;4.15;3.75;;;22.00;58.20;;;;;;5112626;28;20301;-78
2023/06/19 02:49:29;;;;;;;4.32;3.60;;;22.00;58.20;;;;;;5112446;28;20249;-78
2023/06/19 02:51:57;;;;;;;4.18;3.53;;;22.00;58.20;;;;;;5112425;28;20674;-78
2023/06/19 02:54:24;;;;;;;4.07;3.67;;;22.00;58.20;;;;;;5112707;28;20271;-78
2023/06/19 02:56:51;;;;;;;3.95;3.55;;;22.00;58.20;;;;;;5112222;28;20693;-78
2023/06/19 02:59:18;;;;;;;4.95;4.13;;;22.00;58.30;;;;;;5112619;28;20640;-78
2023/06/19 03:01:45;;;;;;;5.60;3.90;;;22.00;58.30;;;;;;5111999;28;20575;-78
2023/06/19 03:04:15;;;;;;;4.45;4.05;;;22.00;58.20;;;;;;5094370;28;20204;-78
2023/06/19 03:06:42;;;;;;;3.47;3.17;;;22.00;58.20;;;;;;5094082;28;20217;-78
2023/06/19 03:09:12;;;;;;;3.80;3.30;;;22.00;58.20;;;;;;5112284;28;20192;-78
2023/06/19 03:11:40;;;;;;;4.00;3.60;;;22.00;58.20;;;;;;5094742;28;20193;-78
2023/06/19 03:14:08;;;;;;;5.47;4.32;;;22.00;58.20;;;;;;5113104;28;20190;-78
2023/06/19 03:16:36;;;;;;;3.92;3.40;;;22.00;58.20;;;;;;5116209;28;20273;-78
2023/06/19 03:19:03;;;;;;;3.90;3.50;;;22.00;58.30;;;;;;5116166;28;20277;-78
2023/06/19 03:21:32;;;;;;;4.07;3.67;;;22.00;58.20;;;;;;5116429;28;20287;-78
2023/06/19 03:23:59;;;;;;;4.75;3.60;;;22.00;58.30;;;;;;5131014;27;20227;-78
2023/06/19 03:26:26;;;;;;;4.28;3.60;;;22.00;58.30;;;;;;5126374;27;20312;-78
2023/06/19 03:28:53;;;;;;;5.28;3.55;;;22.00;58.30;;;;;;5116236;28;20230;-78
2023/06/19 03:31:21;;;;;;;3.90;3.50;;;22.00;58.30;;;;;;5098533;28;20244;-78
2023/06/19 03:33:47;;;;;;;4.20;3.80;;;22.00;58.30;;;;;;5097760;28;20220;-78
2023/06/19 03:36:15;;;;;;;4.60;3.60;;;22.00;58.30;;;;;;5116002;28;20296;-78
2023/06/19 03:38:43;;;;;;;6.20;3.45;;;22.00;58.30;;;;;;5097774;28;20681;-78
2023/06/19 03:41:10;;;;;;;4.57;3.38;;;22.00;58.30;;;;;;5116049;28;20642;-78
2023/06/19 03:43:38;;;;;;;4.57;3.90;;;22.00;58.30;;;;;;5115945;28;20185;-78
2023/06/19 03:46:06;;;;;;;4.97;3.60;;;22.00;58.30;;;;;;5115542;28;20236;-77
2023/06/19 03:48:33;;;;;;;4.38;3.88;;;22.00;58.30;;;;;;5115820;28;20272;-78
2023/06/19 03:51:00;;;;;;;5.03;3.55;;;22.00;58.30;;;;;;5116083;28;20299;-78
2023/06/19 03:53:27;;;;;;;4.15;3.75;;;22.00;59.00;;;;;;5115806;28;20276;-78
2023/06/19 03:55:57;;;;;;;5.32;3.85;;;22.00;58.30;;;;;;5115805;28;20244;-78
2023/06/19 03:58:24;;;;;;;4.70;3.92;;;22.00;58.40;;;;;;5115811;28;20616;-78
2023/06/19 04:00:52;;;;;;;4.20;3.80;;;21.90;58.90;;;;;;5097362;28;20219;-78
2023/06/19 04:03:20;;;;;;;3.67;3.33;;;21.90;58.30;;;;;;5115769;28;20193;-78
2023/06/19 04:05:48;;;;;;;4.60;3.20;;;22.00;58.30;;;;;;5115607;28;20236;-78
2023/06/19 04:08:17;;;;;;;4.07;3.50;;;21.90;58.30;;;;;;5115673;28;20285;-78
2023/06/19 04:10:45;;;;;;;3.90;3.45;;;22.00;58.40;;;;;;5115670;28;20300;-78
2023/06/19 04:13:14;;;;;;;4.35;3.42;;;21.90;58.30;;;;;;5115500;28;20272;-78
2023/06/19 04:15:43;;;;;;;6.10;3.40;;;21.90;58.20;;;;;;5115169;28;20645;-78
2023/06/19 04:18:10;;;;;;;4.45;3.53;;;21.90;58.30;;;;;;5096874;28;20193;-78
2023/06/19 04:20:38;;;;;;;3.50;3.20;;;21.90;58.20;;;;;;5115486;28;20303;-78
2023/06/19 04:23:05;;;;;;;4.20;3.78;;;21.90;58.30;;;;;;5115085;28;20324;-78
2023/06/19 04:25:32;;;;;;;3.80;3.42;;;21.90;58.30;;;;;;5114384;28;20634;-78
2023/06/19 04:27:59;;;;;;;3.50;3.20;;;21.90;58.30;;;;;;5115199;28;20218;-78
2023/06/19 04:30:28;;;;;;;3.80;3.42;;;21.90;58.30;;;;;;5115318;28;20256;-78
2023/06/19 04:32:55;;;;;;;3.42;2.95;;;21.90;58.20;;;;;;5115183;28;20264;-78
2023/06/19 04:35:23;;;;;;;9.43;3.60;;;21.90;58.30;;;;;;5115063;28;20304;-78
2023/06/19 04:37:50;;;;;;;3.90;3.40;;;21.90;58.20;;;;;;5096652;28;20201;-78
2023/06/19 04:40:17;;;;;;;5.00;3.42;;;21.90;58.30;;;;;;5115267;28;20296;-78
2023/06/19 04:42:44;;;;;;;4.20;3.28;;;21.90;58.30;;;;;;5114615;28;20743;-78
2023/06/19 04:45:12;;;;;;;6.32;3.53;;;21.90;58.20;;;;;;5114654;28;20292;-78
2023/06/19 04:47:41;;;;;;;4.07;3.63;;;21.90;58.20;;;;;;5114638;28;20248;-78
2023/06/19 04:50:09;;;;;;;4.47;3.85;;;21.90;58.30;;;;;;5114765;28;20213;-78
2023/06/19 04:52:37;;;;;;;3.60;3.25;;;21.90;58.30;;;;;;5114444;28;20764;-78
2023/06/19 04:55:09;;;;;;;3.63;3.33;;;21.90;58.20;;;;;;5096164;28;20213;-78
2023/06/19 04:57:37;;;;;;;4.15;3.55;;;21.90;58.20;;;;;;5110647;28;20270;-78
2023/06/19 05:00:06;;;;;;;3.60;3.30;;;21.90;58.20;;;;;;5114624;28;20564;-78
2023/06/19 05:02:33;;;;;;;5.18;3.00;;;21.90;58.30;;;;;;5114494;28;20247;-78
2023/06/19 05:05:02;;;;;;;4.28;3.88;;;21.90;58.20;;;;;;5114440;28;20320;-78
2023/06/19 05:07:29;;;;;;;3.78;3.35;;;21.90;58.30;;;;;;5114281;28;20348;-78
2023/06/19 05:09:56;;;;;;;3.72;3.10;;;21.90;58.30;;;;;;5114340;28;20248;-78
2023/06/19 05:12:23;;;;;;;4.05;3.65;;;21.90;58.30;;;;;;5114272;28;20285;-78
2023/06/19 05:14:50;;;;;;;3.95;3.55;;;21.90;58.30;;;;;;5096326;28;20292;-78
2023/06/19 05:17:17;;;;;;;3.90;3.08;;;21.90;58.30;;;;;;5113863;28;20272;-78
2023/06/19 05:19:45;;;;;;;3.65;3.33;;;21.90;58.30;;;;;;5114116;28;20292;-79
2023/06/19 05:22:14;;;;;;;4.03;3.25;;;21.90;58.20;;;;;;5109845;28;20255;-78
2023/06/19 05:24:41;;;;;;;3.47;3.17;;;21.90;58.30;;;;;;5113811;28;20312;-78
2023/06/19 05:27:08;;;;;;;4.65;3.28;;;21.90;58.30;;;;;;5095514;28;20312;-78
2023/06/19 05:29:35;;;;;;;4.15;3.10;;;21.90;58.30;;;;;;5113931;28;20212;-78
2023/06/19 05:32:03;;;;;;;3.60;3.30;;;21.90;58.30;;;;;;5113645;28;20280;-78
2023/06/19 05:34:30;;;;;;;4.47;3.45;;;21.90;58.30;;;;;;5061031;28;20217;-78
2023/06/19 05:37:00;;;;;;;3.70;3.40;;;21.90;58.30;;;;;;5090831;28;20276;-78
2023/06/19 05:39:29;;;;;;;5.05;3.38;;;21.90;58.30;;;;;;5096130;28;20238;-78
2023/06/19 05:41:56;;;;;;;4.32;3.65;;;21.90;58.30;;;;;;5095395;28;20371;-78
2023/06/19 05:44:23;;;;;;;5.22;3.50;;;21.90;58.30;;;;;;5109537;28;20250;-78
2023/06/19 05:46:50;;;;;;;4.07;3.50;;;21.90;58.40;;;;;;5113228;28;20676;-78
2023/06/19 05:49:17;;;;;;;3.35;3.05;;;21.90;58.30;;;;;;5095160;28;20193;-78
2023/06/19 05:51:44;;;;;;;3.90;3.50;;;21.90;58.20;;;;;;5113313;28;20726;-78
2023/06/19 05:54:11;;;;;;;6.38;3.67;;;21.90;58.30;;;;;;5113512;28;20268;-78
2023/06/19 05:56:41;;;;;;;5.20;3.58;;;21.90;58.30;;;;;;5113150;28;20276;-77
2023/06/19 05:59:08;;;;;;;4.38;3.45;;;21.90;58.30;;;;;;5113415;28;20618;-78
2023/06/19 06:01:35;;;;;;;4.13;3.38;;;21.90;58.30;;;;;;5113214;28;20651;-78
2023/06/19 06:04:03;;;;;;;4.07;3.67;;;21.90;58.30;;;;;;5113324;28;20642;-78
2023/06/19 06:06:30;;;;;;;4.82;3.30;;;21.90;58.30;;;;;;5112641;28;20236;-78
2023/06/19 06:08:57;;;;;;;5.15;3.85;;;22.00;58.40;;;;;;5113254;28;20283;-77
2023/06/19 06:11:25;;;;;;;4.60;3.30;;;22.00;58.40;;;;;;5113447;28;20225;-78
2023/06/19 06:13:53;;;;;;;4.18;3.40;;;22.00;58.40;;;;;;5112681;28;20254;-78
2023/06/19 06:16:20;;;;;;;4.45;3.60;;;22.00;58.40;;;;;;5113224;28;20300;-78
2023/06/19 06:18:48;;;;;;;4.57;3.40;;;22.00;58.30;;;;;;5112863;28;20750;-77
2023/06/19 06:21:15;;;;;;;5.00;3.75;;;22.00;58.30;;;;;;5112873;28;20299;-78
2023/06/19 06:23:44;;;;;;;4.47;3.60;;;22.00;58.30;;;;;;5112600;28;20270;-78
2023/06/19 06:26:12;;;;;;;5.28;3.90;;;22.00;58.30;;;;;;5112517;28;20698;-78
2023/06/19 06:28:40;;;;;;;4.30;3.30;;;22.00;58.30;;;;;;5112815;28;20189;-78
2023/06/19 06:31:09;;;;;;;4.70;3.78;;;22.00;58.30;;;;;;5113039;28;20213;-78
2023/06/19 06:33:36;;;;;;;4.00;3.35;;;22.00;58.30;;;;;;5112745;28;20647;-78
2023/06/19 06:36:04;;;;;;;4.68;3.55;;;22.00;58.40;;;;;;5112665;28;20734;-78
2023/06/19 06:38:32;;;;;;;5.18;3.55;;;22.00;58.30;;;;;;5112151;28;20288;-78
2023/06/19 06:40:59;;;;;;;4.85;3.60;;;22.00;58.20;;;;;;5112924;28;20247;-78
2023/06/19 06:43:26;;;;;;;5.70;3.42;;;22.00;58.20;;;;;;5107281;28;20221;-78
2023/06/19 06:45:53;;;;;;;3.92;3.53;;;22.00;58.20;;;;;;5112537;28;20768;-78
2023/06/19 06:48:22;;;;;;;6.10;3.55;;;22.00;58.20;;;;;;5096964;28;20718;-78
2023/06/19 06:50:50;;;;;;;6.68;3.38;;;22.00;58.20;;;;;;5119746;28;20224;-78
2023/06/19 06:53:18;;;;;;;4.57;3.35;;;22.00;58.20;;;;;;5119457;28;20189;-78
2023/06/19 06:55:45;;;;;;;5.47;3.65;;;22.00;58.20;;;;;;5118913;28;20299;-78
2023/06/19 06:58:14;;;;;;;5.28;3.80;;;22.00;58.20;;;;;;5118894;28;20220;-78
2023/06/19 07:00:41;;;;;;;5.85;4.00;;;22.00;58.90;;;;;;5119547;28;20217;-78
2023/06/19 07:03:13;;;;;;;4.65;3.40;;;22.00;58.90;;;;;;5119102;28;20189;-78
2023/06/19 07:05:45;;;;;;;5.07;3.83;;;22.00;58.30;;;;;;5098239;28;20586;-78
2023/06/19 07:08:14;;;;;;;6.10;3.63;;;22.00;58.30;;;;;;5119072;28;20213;-77
2023/06/19 07:10:41;;;;;;;7.05;3.80;;;22.00;58.30;;;;;;5118945;28;20270;-78
2023/06/19 07:13:08;;;;;;;5.15;3.72;;;22.10;58.40;;;;;;5119349;28;20216;-79
2023/06/19 07:15:35;;;;;;;7.10;3.65;;;22.10;58.40;;;;;;5119478;28;20248;-79
2023/06/19 07:18:03;;;;;;;6.28;3.83;;;22.10;58.40;;;;;;5119313;28;20256;-78
2023/06/19 07:20:30;;;;;;;6.05;4.35;;;22.10;58.40;;;;;;5119051;28;20781;-77
2023/06/19 07:23:00;;;;;;;6.03;4.20;;;22.10;58.40;;;;;;5119027;28;20309;-78
2023/06/19 07:25:27;;;;;;;7.35;3.83;;;22.10;58.40;;;;;;5118558;28;20243;-78
2023/06/19 07:27:54;;;;;;;11.32;3.90;;;22.10;58.40;;;;;;5100881;28;20228;-78
2023/06/19 07:30:21;;;;;;;7.07;4.47;;;22.00;58.30;;;;;;5118861;28;20591;-78
2023/06/19 07:32:49;;;;;;;6.63;4.00;;;22.10;58.40;;;;;;5100837;28;20199;-78
2023/06/19 07:35:16;;;;;;;7.15;4.20;;;22.10;58.50;;;;;;5100778;28;20304;-78
2023/06/19 07:37:43;;;;;;;7.80;4.13;;;22.10;58.50;;;;;;5119115;28;20221;-78
2023/06/19 07:40:13;;;;;;;6.28;3.80;;;22.10;58.50;;;;;;5119118;28;20683;-78
2023/06/19 07:42:40;;;;;;;5.20;3.90;;;22.10;58.50;;;;;;5114929;28;20276;-77
2023/06/19 07:45:09;;;;;;;8.20;4.10;;;22.10;58.50;;;;;;5118353;28;20261;-79
2023/06/19 07:47:36;;;;;;;10.63;4.32;;;22.10;58.50;;;;;;5119035;28;20266;-78
2023/06/19 07:50:04;;;;;;;9.05;4.53;;;22.10;59.10;;;;;;5118721;28;20752;-78
2023/06/19 07:52:31;;;;;;;5.45;3.83;;;22.10;58.60;;;;;;5118670;28;20224;-78
2023/06/19 07:54:59;;;;;;;5.90;4.20;;;22.10;58.60;;;;;;5118552;28;20243;-78
2023/06/19 07:57:28;;;;;;;5.60;4.07;;;22.10;58.60;;;;;;5118623;28;20268;-78
2023/06/19 07:59:56;;;;;;;6.03;3.90;;;22.10;58.50;;;;;;5116657;28;20862;-78
2023/06/19 08:02:23;;;;;;;5.07;3.80;;;22.10;58.60;;;;;;5115753;28;20272;-78
2023/06/19 08:04:50;;;;;;;7.03;4.68;;;22.10;58.60;;;;;;5115334;28;20746;-79
2023/06/19 08:07:18;;;;;;;6.60;4.13;;;22.10;58.60;;;;;;5115146;28;20205;-78
2023/06/19 08:09:45;;;;;;;5.80;3.90;;;22.10;58.60;;;;;;5115124;28;20614;-78
2023/06/19 08:12:12;;;;;;;4.15;3.53;;;22.10;58.60;;;;;;5097135;28;20272;-78
2023/06/19 08:14:42;;;;;;;6.65;3.90;;;22.10;58.60;;;;;;5115374;28;20281;-79
2023/06/19 08:17:09;;;;;;;4.75;3.60;;;22.10;59.30;;;;;;5115323;28;20218;-78
2023/06/19 08:19:38;;;;;;;5.07;3.67;;;22.10;58.60;;;;;;5115415;28;20287;-77
2023/06/19 08:22:06;;;;;;;6.97;4.35;;;22.10;58.70;;;;;;5115473;28;20190;-78
2023/06/19 08:24:33;;;;;;;7.00;3.75;;;22.10;58.70;;;;;;5114434;28;20237;-78
2023/06/19 08:27:00;;;;;;;10.27;3.97;;;22.10;58.70;;;;;;5096776;28;20313;-78
2023/06/19 08:29:28;;;;;;;6.07;3.80;;;22.10;58.70;;;;;;5115216;28;20225;-78
2023/06/19 08:31:58;;;;;;;8.63;4.22;;;22.10;58.70;;;;;;5114757;28;20642;-78
2023/06/19 08:34:25;;;;;;;9.30;4.13;;;22.10;58.70;;;;;;5097165;28;20246;-78
2023/06/19 08:36:52;;;;;;;8.25;3.78;;;22.10;58.70;;;;;;5114962;28;20221;-78
2023/06/19 08:39:20;;;;;;;7.00;3.95;;;22.20;58.80;;;;;;5115068;28;20262;-78
2023/06/19 08:41:47;;;;;;;7.70;4.10;;;22.20;58.90;;;;;;5114485;28;20220;-78
2023/06/19 08:44:14;;;;;;;7.53;4.10;;;22.20;58.80;;;;;;5114330;28;20693;-78
2023/06/19 08:46:42;;;;;;;8.18;3.80;;;22.10;58.80;;;;;;5096928;28;20300;-78
2023/06/19 08:49:11;;;;;;;6.28;4.20;;;22.20;58.80;;;;;;5114689;28;20185;-78
2023/06/19 08:51:38;;;;;;;8.38;4.13;;;22.20;58.90;;;;;;5114973;28;20213;-78
2023/06/19 08:54:07;;;;;;;6.25;4.40;;;22.20;58.80;;;;;;5114364;28;20201;-78
2023/06/19 08:56:37;;;;;;;9.23;4.32;;;22.20;58.90;;;;;;5114731;28;20244;-78
2023/06/19 08:59:11;;;;;;;9.18;4.22;;;22.20;58.90;;;;;;5114463;28;20238;-78
2023/06/19 09:01:39;;;;;;;6.18;4.07;;;22.20;61.00;;;;;;5114563;28;20248;-78
2023/06/19 09:04:27;;;;;;;15.15;4.60;;;22.20;60.70;;;;;;5114256;28;20288;-78
2023/06/19 09:06:58;;;;;;;11.02;4.78;;;22.20;60.90;;;;;;5112057;28;20213;-78
2023/06/19 09:09:28;;;;;;;12.70;5.13;;;22.20;60.90;;;;;;5113972;28;20276;-78
2023/06/19 09:11:59;;;;;;;10.65;4.35;;;22.20;60.50;;;;;;5113139;28;20733;-77
2023/06/19 09:14:33;;;;;;;10.63;4.72;;;22.20;60.70;;;;;;5113977;28;20556;-78
2023/06/19 09:17:02;;;;;;;10.20;4.50;;;22.20;61.00;;;;;;5114137;28;20201;-77
2023/06/19 09:20:05;;;;;;;12.10;5.13;;;22.20;61.20;;;;;;5113864;28;20695;-78
2023/06/19 09:45:10;;;;;;;11.25;4.30;;;22.20;63.50;;;;;;5050448;28;20223;-77
2023/06/19 09:47:39;;;;;;;8.73;4.15;;;22.20;62.60;;;;;;5046360;28;20259;-77
2023/06/19 09:50:07;;;;;;;13.00;4.47;;;22.20;62.50;;;;;;5033936;28;20709;-77
2023/06/19 09:52:34;;;;;;;12.45;5.10;;;22.20;62.20;;;;;;5000990;28;20203;-76
2023/06/19 09:55:04;;;;;;;10.27;3.85;;;22.20;62.00;;;;;;5050002;28;20223;-77
2023/06/19 09:57:32;;;;;;;7.80;4.03;;;22.20;61.70;;;;;;5050410;28;20199;-77
2023/06/19 10:00:09;;;;;;;8.68;4.07;;;22.20;61.60;;;;;;5050312;28;20223;-77
2023/06/19 10:02:38;;;;;;;8.93;4.13;;;22.20;61.50;;;;;;5050204;28;20192;-76
2023/06/19 10:05:08;;;;;;;9.50;4.25;;;22.20;61.40;;;;;;5050120;28;20216;-77
2023/06/19 10:07:36;;;;;;;8.50;4.32;;;22.20;61.40;;;;;;5069950;28;20211;-77
2023/06/19 10:10:06;;;;;;;10.50;4.57;;;22.20;61.30;;;;;;5053380;28;20211;-77
2023/06/19 10:12:38;;;;;;;7.93;4.38;;;22.30;61.40;;;;;;5053310;28;20199;-77
2023/06/19 10:15:18;;;;;;;12.43;4.40;;;22.20;61.30;;;;;;5071572;28;20215;-77
2023/06/19 10:17:50;;;;;;;6.50;4.25;;;22.30;61.20;;;;;;5109976;28;20193;-77
2023/06/19 10:20:25;;;;;;;8.45;3.80;;;22.30;61.20;;;;;;5113287;28;20241;-78
2023/06/19 10:23:06;;;;;;;12.82;4.10;;;22.30;61.10;;;;;;5114075;28;20304;-77
2023/06/19 10:25:34;;;;;;;5.43;3.70;;;22.30;61.00;;;;;;5128146;27;20214;-77
2023/06/19 10:28:05;;;;;;;8.88;4.45;;;22.30;61.00;;;;;;5099048;28;20221;-77
2023/06/19 10:30:34;;;;;;;6.00;3.75;;;22.30;61.10;;;;;;5112947;28;20220;-77
2023/06/19 10:33:04;;;;;;;6.40;3.65;;;22.30;60.90;;;;;;5112899;28;20189;-78
2023/06/19 10:35:40;;;;;;;6.60;3.42;;;22.30;60.90;;;;;;5112849;28;20217;-77
2023/06/19 10:38:07;;;;;;;6.72;4.07;;;22.30;60.80;;;;;;5113032;28;20193;-77
2023/06/19 10:40:34;;;;;;;5.82;3.72;;;22.30;60.70;;;;;;5112878;28;20219;-77
2023/06/19 10:43:01;;;;;;;4.75;3.70;;;22.20;60.60;;;;;;5112486;28;20203;-77
2023/06/19 10:45:29;;;;;;;6.13;3.67;;;22.30;60.70;;;;;;5112614;28;20694;-77
2023/06/19 10:47:57;;;;;;;5.35;3.63;;;22.30;60.70;;;;;;5094633;28;20220;-77
2023/06/19 10:50:25;;;;;;;7.18;4.00;;;22.30;60.60;;;;;;5112662;28;20320;-77
2023/06/19 10:52:57;;;;;;;5.97;3.80;;;22.30;60.60;;;;;;5112525;28;20193;-77
2023/06/19 10:55:24;;;;;;;7.63;3.63;;;22.30;60.70;;;;;;5112652;28;20581;-77
2023/06/19 10:57:52;;;;;;;6.47;3.67;;;22.30;60.50;;;;;;5112392;28;20189;-77
2023/06/19 11:00:29;;;;;;;7.38;4.05;;;22.30;60.50;;;;;;5112614;28;20224;-77
2023/06/19 11:02:56;;;;;;;6.50;3.63;;;22.30;60.50;;;;;;5112666;28;20189;-77
2023/06/19 11:05:27;;;;;;;7.25;3.70;;;22.30;60.40;;;;;;5094130;28;20217;-77
2023/06/19 11:07:55;;;;;;;7.03;3.72;;;22.30;60.50;;;;;;5112301;28;20761;-78
2023/06/19 11:10:23;;;;;;;4.85;3.30;;;22.30;60.30;;;;;;5112568;28;20248;-77
2023/06/19 11:12:50;;;;;;;5.88;3.75;;;22.30;60.30;;;;;;5112534;28;20224;-77
2023/06/19 11:15:18;;;;;;;4.97;3.70;;;22.30;60.30;;;;;;5112475;28;20304;-77
2023/06/19 11:17:45;;;;;;;11.13;4.18;;;22.30;60.30;;;;;;5094501;28;20600;-77
2023/06/19 11:20:14;;;;;;;5.82;3.88;;;22.30;60.30;;;;;;5112496;28;20213;-78
2023/06/19 11:22:42;;;;;;;6.53;4.00;;;22.30;60.30;;;;;;5112285;28;20235;-77
2023/06/19 11:25:11;;;;;;;6.80;3.85;;;22.30;60.20;;;;;;5112318;28;20252;-77
2023/06/19 11:27:40;;;;;;;7.45;3.58;;;22.30;60.20;;;;;;5112596;28;20193;-77
2023/06/19 11:30:09;;;;;;;7.47;3.92;;;22.30;60.20;;;;;;5111954;28;20276;-77
2023/06/19 11:32:40;;;;;;;6.57;3.65;;;22.30;61.00;;;;;;5076327;28;20572;-77
2023/06/19 11:35:11;;;;;;;7.03;3.70;;;22.30;60.20;;;;;;5112957;28;20550;-77
2023/06/19 11:37:42;;;;;;;6.30;4.07;;;22.30;60.20;;;;;;5098247;28;20618;-77
2023/06/19 11:40:14;;;;;;;8.00;3.92;;;22.30;60.10;;;;;;5116140;28;20189;-77
2023/06/19 11:42:54;;;;;;;7.13;3.65;;;22.30;60.10;;;;;;5115794;28;20276;-77
2023/06/19 11:45:22;;;;;;;6.53;3.70;;;22.30;60.10;;;;;;5115613;28;20217;-76
2023/06/19 11:47:50;;;;;;;5.90;3.58;;;22.30;60.10;;;;;;5115906;28;20296;-77
2023/06/19 11:50:19;;;;;;;6.53;3.70;;;22.30;60.10;;;;;;5115598;28;20266;-77
2023/06/19 11:52:48;;;;;;;6.20;3.67;;;22.30;60.10;;;;;;5115902;28;20277;-77
2023/06/19 11:55:16;;;;;;;6.47;3.30;;;22.30;60.10;;;;;;5115790;28;20278;-77
2023/06/19 11:57:44;;;;;;;5.60;3.67;;;22.30;60.00;;;;;;5115423;28;20657;-77
2023/06/19 12:00:16;;;;;;;4.80;3.47;;;22.30;60.00;;;;;;5097519;28;20667;-77
2023/06/19 12:02:44;;;;;;;6.53;3.40;;;22.30;60.00;;;;;;5112356;28;20205;-77
2023/06/19 12:05:12;;;;;;;6.38;3.78;;;22.30;60.00;;;;;;5096826;28;20682;-77
2023/06/19 12:07:40;;;;;;;4.82;3.65;;;22.30;60.00;;;;;;5111379;28;20678;-77
2023/06/19 12:10:11;;;;;;;6.47;3.75;;;22.30;59.90;;;;;;5115663;28;20181;-77
2023/06/19 12:12:40;;;;;;;5.30;3.83;;;22.30;59.90;;;;;;5097146;28;20198;-77
2023/06/19 12:15:08;;;;;;;4.97;3.33;;;22.30;59.90;;;;;;5114739;28;20208;-77
2023/06/19 12:17:35;;;;;;;6.03;3.45;;;22.30;59.90;;;;;;5115157;28;20232;-77
2023/06/19 12:20:05;;;;;;;5.50;3.45;;;22.30;59.90;;;;;;5115253;28;20210;-77
2023/06/19 12:22:33;;;;;;;5.10;3.35;;;22.30;59.90;;;;;;5114833;28;20236;-77
2023/06/19 12:25:00;;;;;;;6.32;3.90;;;22.30;59.80;;;;;;5115176;28;20189;-77
2023/06/19 12:27:29;;;;;;;8.10;3.40;;;22.30;59.90;;;;;;5080876;28;20238;-77
2023/06/19 12:29:57;;;;;;;7.97;3.75;;;22.30;59.80;;;;;;5114673;28;20249;-77
2023/06/19 12:32:24;;;;;;;5.57;3.50;;;22.30;59.80;;;;;;5114634;28;20236;-77
2023/06/19 12:34:53;;;;;;;5.53;3.90;;;22.30;59.80;;;;;;5114724;28;20181;-77
2023/06/19 12:37:22;;;;;;;4.13;3.35;;;22.30;59.80;;;;;;5115200;28;20223;-77
2023/06/19 12:39:50;;;;;;;6.97;3.50;;;22.30;59.80;;;;;;5114773;28;20234;-78
2023/06/19 12:42:17;;;;;;;4.07;3.30;;;22.30;59.80;;;;;;5114773;28;20296;-77
2023/06/19 12:44:47;;;;;;;6.05;3.70;;;22.30;59.80;;;;;;5115016;28;20242;-77
2023/06/19 12:47:15;;;;;;;6.32;3.85;;;22.30;59.80;;;;;;5114611;28;20260;-77
2023/06/19 12:49:42;;;;;;;5.15;3.90;;;22.30;59.80;;;;;;5114335;28;20219;-77
2023/06/19 12:52:09;;;;;;;4.82;3.65;;;22.30;59.80;;;;;;5115086;28;20252;-77
2023/06/19 12:54:37;;;;;;;5.65;3.45;;;22.30;59.80;;;;;;5110503;28;20185;-77
2023/06/19 12:57:05;;;;;;;5.38;3.55;;;22.30;59.80;;;;;;5096596;28;20217;-77
2023/06/19 12:59:33;;;;;;;6.55;3.97;;;22.30;59.80;;;;;;5114341;28;20622;-77
2023/06/19 13:02:02;;;;;;;6.40;4.20;;;22.30;59.80;;;;;;5114740;28;20217;-77
2023/06/19 13:04:28;;;;;;;5.50;3.97;;;22.30;59.80;;;;;;5108599;28;20272;-77
2023/06/19 13:06:56;;;;;;;6.15;3.95;;;22.30;59.80;;;;;;5114228;28;20308;-77
2023/06/19 13:09:23;;;;;;;7.70;4.40;;;22.30;59.80;;;;;;5114315;28;20217;-78
2023/06/19 13:11:50;;;;;;;6.10;4.13;;;22.30;59.80;;;;;;5114731;28;20258;-77
2023/06/19 13:14:17;;;;;;;5.43;3.85;;;22.30;59.80;;;;;;5114068;28;20662;-78